Time;durP1;ratioP1;P1;durP2;ratioP2;P2;SDS_P1;SDS_P2;PMS_P1;PMS_P2;Temp;Humidity;BMP_temperature;BMP_pressure;BME280_temperature;BME280_humidity;BME280_pressure;Samples;Min_cycle;Max_cycle;Signal;HPM_P1;HPM_P2
2023/12/29 00:01:59;;;;;;;32.80;19.40;;;;;;;4.72;88.69;98435.23;435260;1250;99289;-42
2023/12/29 00:12:04;;;;;;;40.30;21.10;;;;;;;4.84;88.84;98427.52;435363;1254;107719;-40
2023/12/29 00:22:11;;;;;;;33.70;18.50;;;;;;;4.86;88.84;98425.60;435414;1250;99221;-41
2023/12/29 00:32:18;;;;;;;22.20;14.00;;;;;;;4.91;88.69;98417.61;435421;1249;110896;-41
2023/12/29 00:42:25;;;;;;;26.40;13.70;;;;;;;5.03;88.88;98416.45;435325;1254;106676;-39
2023/12/29 00:52:31;;;;;;;19.90;11.80;;;;;;;5.16;89.01;98410.32;435059;1250;484295;-39
2023/12/29 01:02:37;;;;;;;28.10;15.00;;;;;;;5.24;89.12;98410.84;435435;1251;109357;-40
2023/12/29 01:12:44;;;;;;;26.60;16.30;;;;;;;5.29;89.22;98406.08;435266;1251;98490;-41
2023/12/29 01:22:51;;;;;;;17.50;13.60;;;;;;;5.33;89.02;98400.62;435470;1250;110574;-40
2023/12/29 01:32:57;;;;;;;23.50;14.40;;;;;;;5.46;89.13;98399.22;435423;1250;109350;-40
2023/12/29 01:43:05;;;;;;;26.60;16.80;;;;;;;5.47;89.07;98388.21;435301;1254;99233;-40
2023/12/29 01:53:12;;;;;;;24.40;15.10;;;;;;;5.36;89.13;98379.88;435394;1254;107702;-40
2023/12/29 02:03:18;;;;;;;21.10;14.40;;;;;;;5.30;89.21;98366.19;435584;1250;99244;-41
2023/12/29 02:13:26;;;;;;;23.80;15.20;;;;;;;5.33;89.19;98355.96;435405;1251;111426;-40
2023/12/29 02:23:32;;;;;;;20.50;13.90;;;;;;;5.23;89.07;98345.98;435412;1250;108098;-40
2023/12/29 02:33:40;;;;;;;28.20;16.20;;;;;;;5.10;89.19;98338.06;435428;1254;99043;-40
2023/12/29 02:43:48;;;;;;;29.00;19.00;;;;;;;4.90;89.34;98322.86;436126;1254;108493;-39
2023/12/29 02:53:55;;;;;;;19.90;12.30;;;;;;;4.80;89.35;98315.73;435222;1254;99240;-41
2023/12/29 03:04:03;;;;;;;21.00;14.70;;;;;;;4.74;89.42;98308.79;435415;1263;111693;-40
2023/12/29 03:14:10;;;;;;;22.80;13.20;;;;;;;4.73;89.55;98298.60;435260;1254;106921;-39
2023/12/29 03:24:17;;;;;;;21.90;14.90;;;;;;;4.67;89.79;98293.30;435343;1251;99247;-39
2023/12/29 03:34:24;;;;;;;19.10;11.20;;;;;;;4.52;89.91;98288.53;435150;1254;107470;-40
2023/12/29 03:44:31;;;;;;;20.80;13.00;;;;;;;4.50;90.03;98287.57;435279;1254;98040;-40
2023/12/29 03:54:38;;;;;;;16.70;12.80;;;;;;;4.49;90.24;98274.30;435167;1255;112011;-41
2023/12/29 04:04:44;;;;;;;19.50;13.70;;;;;;;4.45;90.23;98269.94;435302;1253;107051;-41
2023/12/29 04:14:50;;;;;;;17.90;11.60;;;;;;;4.40;90.34;98267.73;435344;1251;100171;-40
2023/12/29 04:24:57;;;;;;;39.50;21.80;;;;;;;4.29;90.45;98264.68;435287;1255;108895;-40
2023/12/29 04:35:05;;;;;;;31.90;18.00;;;;;;;4.07;90.42;98266.35;435389;1254;98082;-40
2023/12/29 04:55:17;;;;;;;16.40;11.50;;;;;;;3.83;90.65;98259.61;435386;1255;107562;-39
2023/12/29 05:05:24;;;;;;;19.20;12.00;;;;;;;3.85;90.86;98248.42;435504;1254;97983;-40
2023/12/29 05:15:29;;;;;;;20.50;13.60;;;;;;;3.88;91.06;98254.98;435274;1250;109519;-40
2023/12/29 05:25:35;;;;;;;22.30;13.20;;;;;;;3.94;91.24;98258.79;435190;1251;98814;-39
2023/12/29 05:35:41;;;;;;;27.80;16.00;;;;;;;3.92;91.42;98257.09;435391;1251;112376;-40
2023/12/29 05:45:49;;;;;;;22.20;13.40;;;;;;;3.88;91.84;98250.96;435466;1254;108258;-40
2023/12/29 06:06:02;;;;;;;22.40;16.20;;;;;;;4.13;91.96;98261.83;435351;1251;108528;-40
2023/12/29 06:16:10;;;;;;;18.40;13.30;;;;;;;4.26;92.08;98250.10;435460;1253;99232;-40
2023/12/29 06:26:22;;;;;;;36.10;20.70;;;;;;;4.24;91.98;98236.01;435271;1251;112806;-40
2023/12/29 06:36:30;;;;;;;21.90;15.70;;;;;;;4.10;92.01;98237.39;435354;1255;108684;-41
2023/12/29 06:46:39;;;;;;;18.80;12.20;;;;;;;4.15;92.00;98249.80;435337;1254;98708;-39
2023/12/29 06:56:45;;;;;;;15.70;11.90;;;;;;;4.25;91.98;98249.52;435280;1250;108354;-43
2023/12/29 07:06:52;;;;;;;18.90;13.70;;;;;;;4.36;91.96;98240.73;435258;1250;99237;-40
2023/12/29 07:16:59;;;;;;;25.60;14.20;;;;;;;4.46;92.06;98238.93;435462;1254;112974;-41
2023/12/29 07:37:13;;;;;;;17.00;10.60;;;;;;;4.67;92.01;98240.67;435342;1250;97973;-40
2023/12/29 07:57:26;;;;;;;18.50;12.10;;;;;;;5.08;92.09;98238.41;435349;1254;97976;-40
2023/12/29 08:07:33;;;;;;;20.20;13.50;;;;;;;5.23;92.15;98237.30;435508;1253;110862;-39
2023/12/29 08:17:40;;;;;;;14.90;9.70;;;;;;;5.42;91.96;98238.70;435306;1254;108608;-40
2023/12/29 08:27:46;;;;;;;19.50;9.20;;;;;;;5.65;91.75;98234.08;435350;1254;98659;-40
2023/12/29 08:47:59;;;;;;;17.10;10.80;;;;;;;5.96;91.60;98244.47;435318;1254;98223;-40
2023/12/29 08:58:05;;;;;;;12.40;8.40;;;;;;;6.21;91.31;98234.89;435441;1254;111390;-40
2023/12/29 09:08:10;;;;;;;15.40;9.80;;;;;;;6.41;91.10;98229.14;435422;1254;107591;-40
2023/12/29 09:18:17;;;;;;;19.10;10.90;;;;;;;6.55;90.92;98227.59;435418;1254;99234;-41
2023/12/29 09:28:22;;;;;;;16.50;10.30;;;;;;;6.74;90.74;98231.05;435201;1254;107975;-39
2023/12/29 09:38:31;;;;;;;13.80;8.40;;;;;;;7.03;90.39;98223.64;435398;1254;99240;-39
2023/12/29 09:48:40;;;;;;;11.90;7.90;;;;;;;7.33;90.20;98220.48;435607;1249;111540;-44
2023/12/29 09:58:47;;;;;;;12.70;7.10;;;;;;;7.53;90.04;98219.52;435390;1254;107971;-40
2023/12/29 10:08:54;;;;;;;10.40;6.30;;;;;;;7.60;89.37;98216.83;435439;1251;99341;-40
2023/12/29 10:19:02;;;;;;;11.60;6.50;;;;;;;7.77;89.01;98213.61;435437;1250;107656;-40
2023/12/29 10:59:27;;;;;;;9.40;6.70;;;;;;;8.32;87.49;98203.23;435302;1254;99321;-41
2023/12/29 11:09:34;;;;;;;15.40;8.80;;;;;;;8.38;87.31;98203.66;435331;1253;109345;-40
2023/12/29 11:29:48;;;;;;;14.60;6.80;;;;;;;8.35;86.69;98175.24;435462;1254;112604;-40
2023/12/29 11:50:01;;;;;;;15.40;8.00;;;;;;;8.51;86.35;98154.60;435484;1249;99238;-40
2023/12/29 12:00:06;;;;;;;13.10;7.10;;;;;;;8.56;86.02;98162.80;435267;1254;108058;-41
2023/12/29 12:20:39;;;;;;;9.70;5.90;;;;;;;8.65;85.01;98145.95;435459;1250;111033;-40
2023/12/29 12:30:46;;;;;;;12.40;7.80;;;;;;;8.64;84.66;98129.13;435320;1253;108812;-40
2023/12/29 12:40:53;;;;;;;13.20;7.90;;;;;;;8.50;84.59;98128.66;435413;1250;97940;-39
2023/12/29 12:50:59;;;;;;;11.80;7.30;;;;;;;8.36;84.29;98125.58;434987;1251;561687;-41
2023/12/29 13:01:04;;;;;;;11.30;5.70;;;;;;;8.29;84.19;98123.80;435500;1253;99237;-41
2023/12/29 13:21:19;;;;;;;9.70;6.70;;;;;;;8.18;84.04;98137.60;435376;1254;105656;-40
2023/12/29 13:31:26;;;;;;;10.20;7.30;;;;;;;8.09;83.94;98148.44;435523;1253;97992;-40
2023/12/29 13:51:39;;;;;;;12.50;7.10;;;;;;;7.99;83.74;98157.54;435312;1254;99250;-39
2023/12/29 14:01:45;;;;;;;20.60;9.70;;;;;;;7.85;83.88;98153.50;435624;1251;111542;-39
2023/12/29 14:21:56;;;;;;;26.10;10.90;;;;;;;7.38;84.06;98170.77;435422;1250;98804;-40
2023/12/29 14:32:04;;;;;;;27.70;13.10;;;;;;;7.25;84.12;98172.12;435472;1251;108724;-40
2023/12/29 14:52:14;;;;;;;23.50;12.50;;;;;;;6.97;84.58;98169.35;435477;1254;111387;-40
2023/12/29 15:02:22;;;;;;;20.10;12.10;;;;;;;6.81;84.67;98163.50;435355;1253;109521;-39
2023/12/29 15:12:27;;;;;;;36.70;19.20;;;;;;;6.72;84.43;98166.71;435235;1254;99380;-39
2023/12/29 15:22:35;;;;;;;41.10;20.90;;;;;;;6.56;84.31;98155.33;435186;1255;109424;-39
2023/12/29 15:32:41;;;;;;;37.90;18.90;;;;;;;6.34;84.57;98153.20;435348;1251;98434;-40
2023/12/29 16:02:59;;;;;;;25.90;14.10;;;;;;;6.08;85.05;98154.63;435404;1254;99208;-40
2023/12/29 16:13:05;;;;;;;52.90;25.70;;;;;;;5.98;85.28;98138.59;435449;1256;108612;-40
2023/12/29 16:23:12;;;;;;;58.00;30.00;;;;;;;5.78;85.36;98139.58;435352;1254;99200;-41
2023/12/29 16:43:25;;;;;;;39.40;22.50;;;;;;;5.40;85.53;98140.08;435310;1251;107341;-41
2023/12/29 17:03:37;;;;;;;29.40;15.70;;;;;;;5.30;86.02;98140.41;435331;1251;111884;-42
2023/12/29 17:13:44;;;;;;;29.00;16.20;;;;;;;5.40;86.44;98140.36;435569;1250;107225;-41
2023/12/29 17:23:50;;;;;;;34.40;17.70;;;;;;;5.41;86.67;98130.71;435281;1256;99257;-40
2023/12/29 17:33:56;;;;;;;24.70;13.20;;;;;;;5.47;86.79;98131.63;435298;1255;108773;-39
2023/12/29 17:44:04;;;;;;;20.20;12.60;;;;;;;5.60;86.87;98136.76;435367;1250;99209;-42
2023/12/29 17:54:11;;;;;;;20.70;12.50;;;;;;;5.77;87.06;98142.93;435366;1254;111084;-41
2023/12/29 18:04:18;;;;;;;24.30;13.40;;;;;;;5.81;87.29;98135.96;435360;1254;108849;-40
2023/12/29 18:14:26;;;;;;;17.10;10.00;;;;;;;5.83;87.30;98135.38;435382;1251;97970;-40
2023/12/29 18:24:33;;;;;;;21.50;13.20;;;;;;;5.91;87.32;98129.71;435277;1255;107608;-40
2023/12/29 18:54:52;;;;;;;21.50;12.70;;;;;;;5.93;87.43;98137.55;435344;1256;108351;-40
2023/12/29 19:15:05;;;;;;;15.10;8.80;;;;;;;6.10;87.40;98118.32;435411;1253;108653;-40
2023/12/29 19:25:13;;;;;;;22.10;11.80;;;;;;;6.16;87.45;98120.30;435427;1254;99212;-40
2023/12/29 19:35:20;;;;;;;25.20;12.30;;;;;;;6.09;87.37;98118.60;435518;1256;111396;-40
2023/12/29 19:45:27;;;;;;;22.50;13.90;;;;;;;6.12;87.32;98120.17;435322;1256;108715;-39
2023/12/29 19:55:34;;;;;;;16.60;8.40;;;;;;;6.27;87.55;98111.08;435350;1254;99209;-39
2023/12/29 20:05:40;;;;;;;19.00;10.00;;;;;;;6.43;87.40;98105.91;435221;1254;107896;-40
2023/12/29 20:15:47;;;;;;;20.00;10.90;;;;;;;6.43;87.41;98106.51;435403;1254;99352;-40
2023/12/29 20:36:01;;;;;;;14.80;9.10;;;;;;;6.54;87.28;98108.70;435451;1264;108440;-40
2023/12/29 20:46:09;;;;;;;17.20;8.10;;;;;;;6.69;87.35;98108.02;435424;1258;99365;-40
2023/12/29 20:56:17;;;;;;;22.10;14.80;;;;;;;6.78;87.49;98104.35;435498;1254;107727;-40
2023/12/29 21:16:31;;;;;;;10.80;7.30;;;;;;;6.95;87.51;98105.06;435366;1254;112251;-40
2023/12/29 21:26:38;;;;;;;13.90;8.50;;;;;;;7.16;87.40;98097.96;435122;1253;108237;-39
2023/12/29 21:56:59;;;;;;;12.70;6.10;;;;;;;7.50;86.74;98097.36;435309;1254;99221;-39
2023/12/29 22:17:11;;;;;;;11.60;7.70;;;;;;;7.38;86.68;98090.64;435238;1257;107952;-40
2023/12/29 22:27:17;;;;;;;13.50;5.80;;;;;;;7.31;86.47;98082.46;435187;1260;97928;-39
2023/12/29 22:37:22;;;;;;;11.60;6.20;;;;;;;7.30;86.38;98070.58;435248;1251;108247;-40
2023/12/29 22:47:29;;;;;;;12.80;6.10;;;;;;;7.28;86.42;98064.73;435391;1252;99236;-39
2023/12/29 22:57:35;;;;;;;13.40;6.40;;;;;;;7.21;86.33;98063.83;435577;1254;111152;-40
2023/12/29 23:07:42;;;;;;;10.00;5.00;;;;;;;7.17;86.18;98065.72;435365;1263;108269;-40
2023/12/29 23:48:05;;;;;;;7.70;5.20;;;;;;;6.98;86.22;98043.12;435474;1255;112613;-41
2023/12/29 23:58:12;;;;;;;9.00;5.00;;;;;;;7.08;86.37;98044.13;435443;1251;108315;-40
